Terminal Aerodrome Forecast
Issued by NWS Caribou, ME

Home | Current Version | Previous Version | Text Only | Print | Product List | Glossary On
Versions: 1 2 3 4 5 6 7 8 9 10 11 12 13 14 15 16 17 18 19 20
000
FTUS41 KCAR 301000 AAB
TAFBGR
TAF AMD
KBGR 301037Z 3011/3106 VRB03KT P6SM BKN050
     FM301600 19004KT P6SM SCT035
     FM310500 00000KT P6SM SCT250=

USA.gov is the U.S. government's official web portal to all federal, state and local government web resources and services.